sensor_id;sensor_type;location;lat;lon;timestamp;P1;durP1;ratioP1;P2;durP2;ratioP2
39864;SDS011;25538;48.392;9.976;2022-11-15T00:01:57;8.07;;;7.33;;
39864;SDS011;25538;48.392;9.976;2022-11-15T00:04:23;8.53;;;7.73;;
39864;SDS011;25538;48.392;9.976;2022-11-15T00:06:49;10.32;;;9.07;;
39864;SDS011;25538;48.392;9.976;2022-11-15T00:09:14;8.50;;;7.70;;
39864;SDS011;25538;48.392;9.976;2022-11-15T00:11:40;9.57;;;8.40;;
39864;SDS011;25538;48.392;9.976;2022-11-15T00:14:06;10.33;;;7.37;;
39864;SDS011;25538;48.392;9.976;2022-11-15T00:16:32;8.40;;;7.60;;
39864;SDS011;25538;48.392;9.976;2022-11-15T00:18:58;9.50;;;7.80;;
39864;SDS011;25538;48.392;9.976;2022-11-15T00:21:24;9.40;;;7.97;;
39864;SDS011;25538;48.392;9.976;2022-11-15T00:23:50;10.13;;;8.40;;
39864;SDS011;25538;48.392;9.976;2022-11-15T00:26:16;12.60;;;8.77;;
39864;SDS011;25538;48.392;9.976;2022-11-15T00:28:41;14.13;;;9.23;;
39864;SDS011;25538;48.392;9.976;2022-11-15T00:31:09;9.83;;;8.83;;
39864;SDS011;25538;48.392;9.976;2022-11-15T00:33:38;9.07;;;7.82;;
39864;SDS011;25538;48.392;9.976;2022-11-15T00:36:07;10.38;;;8.93;;
39864;SDS011;25538;48.392;9.976;2022-11-15T00:38:37;10.63;;;9.50;;
39864;SDS011;25538;48.392;9.976;2022-11-15T00:41:04;12.35;;;8.80;;
39864;SDS011;25538;48.392;9.976;2022-11-15T00:43:31;9.82;;;8.85;;
39864;SDS011;25538;48.392;9.976;2022-11-15T00:45:58;13.15;;;8.38;;
39864;SDS011;25538;48.392;9.976;2022-11-15T00:48:24;8.87;;;7.97;;
39864;SDS011;25538;48.392;9.976;2022-11-15T00:50:50;13.27;;;8.80;;
39864;SDS011;25538;48.392;9.976;2022-11-15T00:53:16;8.48;;;7.78;;
39864;SDS011;25538;48.392;9.976;2022-11-15T00:55:42;10.05;;;8.15;;
39864;SDS011;25538;48.392;9.976;2022-11-15T00:58:08;13.00;;;7.77;;
39864;SDS011;25538;48.392;9.976;2022-11-15T01:00:34;9.30;;;8.40;;
39864;SDS011;25538;48.392;9.976;2022-11-15T01:03:00;9.70;;;8.65;;
39864;SDS011;25538;48.392;9.976;2022-11-15T01:05:27;10.05;;;8.68;;
39864;SDS011;25538;48.392;9.976;2022-11-15T01:07:54;9.68;;;7.90;;
39864;SDS011;25538;48.392;9.976;2022-11-15T01:10:21;9.73;;;8.73;;
39864;SDS011;25538;48.392;9.976;2022-11-15T01:12:47;10.65;;;8.73;;
39864;SDS011;25538;48.392;9.976;2022-11-15T01:15:14;11.23;;;8.73;;
39864;SDS011;25538;48.392;9.976;2022-11-15T01:17:40;8.95;;;8.13;;
39864;SDS011;25538;48.392;9.976;2022-11-15T01:20:06;9.40;;;8.23;;
39864;SDS011;25538;48.392;9.976;2022-11-15T01:22:32;9.88;;;7.75;;
39864;SDS011;25538;48.392;9.976;2022-11-15T01:24:58;10.87;;;8.70;;
39864;SDS011;25538;48.392;9.976;2022-11-15T01:27:24;12.98;;;8.52;;
39864;SDS011;25538;48.392;9.976;2022-11-15T01:29:50;9.40;;;8.50;;
39864;SDS011;25538;48.392;9.976;2022-11-15T01:32:16;14.80;;;8.93;;
39864;SDS011;25538;48.392;9.976;2022-11-15T01:34:42;10.10;;;8.00;;
39864;SDS011;25538;48.392;9.976;2022-11-15T01:37:08;12.70;;;8.15;;
39864;SDS011;25538;48.392;9.976;2022-11-15T01:39:34;11.80;;;8.70;;
39864;SDS011;25538;48.392;9.976;2022-11-15T01:42:00;9.43;;;7.57;;
39864;SDS011;25538;48.392;9.976;2022-11-15T01:47:17;9.60;;;8.32;;
39864;SDS011;25538;48.392;9.976;2022-11-15T01:49:58;10.05;;;7.60;;
39864;SDS011;25538;48.392;9.976;2022-11-15T01:52:29;14.18;;;8.68;;
39864;SDS011;25538;48.392;9.976;2022-11-15T01:57:57;10.30;;;8.70;;
39864;SDS011;25538;48.392;9.976;2022-11-15T02:00:26;9.63;;;8.55;;
39864;SDS011;25538;48.392;9.976;2022-11-15T02:02:52;10.65;;;7.57;;
39864;SDS011;25538;48.392;9.976;2022-11-15T02:05:18;11.07;;;8.73;;
39864;SDS011;25538;48.392;9.976;2022-11-15T02:07:44;16.50;;;8.90;;
39864;SDS011;25538;48.392;9.976;2022-11-15T02:10:12;11.15;;;8.85;;
39864;SDS011;25538;48.392;9.976;2022-11-15T02:12:42;9.18;;;8.38;;
39864;SDS011;25538;48.392;9.976;2022-11-15T02:15:08;8.40;;;7.50;;
39864;SDS011;25538;48.392;9.976;2022-11-15T02:17:45;8.57;;;7.60;;
39864;SDS011;25538;48.392;9.976;2022-11-15T02:23:21;8.40;;;7.30;;
39864;SDS011;25538;48.392;9.976;2022-11-15T02:34:30;8.48;;;7.47;;
39864;SDS011;25538;48.392;9.976;2022-11-15T02:37:02;9.05;;;7.10;;
39864;SDS011;25538;48.392;9.976;2022-11-15T02:42:20;10.18;;;7.57;;
39864;SDS011;25538;48.392;9.976;2022-11-15T02:45:09;8.75;;;7.55;;
39864;SDS011;25538;48.392;9.976;2022-11-15T02:47:41;7.93;;;7.22;;
39864;SDS011;25538;48.392;9.976;2022-11-15T02:50:10;8.93;;;7.60;;
39864;SDS011;25538;48.392;9.976;2022-11-15T02:52:40;7.55;;;6.80;;
39864;SDS011;25538;48.392;9.976;2022-11-15T02:55:24;13.38;;;8.60;;
39864;SDS011;25538;48.392;9.976;2022-11-15T02:57:52;9.63;;;7.97;;
39864;SDS011;25538;48.392;9.976;2022-11-15T03:00:27;10.85;;;8.18;;
39864;SDS011;25538;48.392;9.976;2022-11-15T03:05:38;8.68;;;7.13;;
39864;SDS011;25538;48.392;9.976;2022-11-15T03:08:29;9.52;;;8.57;;
39864;SDS011;25538;48.392;9.976;2022-11-15T03:11:08;8.95;;;8.15;;
39864;SDS011;25538;48.392;9.976;2022-11-15T03:16:40;10.45;;;8.40;;
39864;SDS011;25538;48.392;9.976;2022-11-15T03:19:33;11.18;;;9.23;;
39864;SDS011;25538;48.392;9.976;2022-11-15T03:22:10;9.35;;;8.27;;
39864;SDS011;25538;48.392;9.976;2022-11-15T03:24:38;8.38;;;7.57;;
39864;SDS011;25538;48.392;9.976;2022-11-15T03:27:06;10.70;;;8.63;;
39864;SDS011;25538;48.392;9.976;2022-11-15T03:29:38;13.70;;;7.10;;
39864;SDS011;25538;48.392;9.976;2022-11-15T03:32:19;9.02;;;8.13;;
39864;SDS011;25538;48.392;9.976;2022-11-15T03:34:53;10.18;;;8.48;;
39864;SDS011;25538;48.392;9.976;2022-11-15T03:37:22;12.02;;;7.68;;
39864;SDS011;25538;48.392;9.976;2022-11-15T03:39:55;10.63;;;7.88;;
39864;SDS011;25538;48.392;9.976;2022-11-15T03:44:58;8.23;;;7.40;;
39864;SDS011;25538;48.392;9.976;2022-11-15T03:47:48;9.57;;;7.20;;
39864;SDS011;25538;48.392;9.976;2022-11-15T03:50:19;8.10;;;7.30;;
39864;SDS011;25538;48.392;9.976;2022-11-15T03:52:46;8.63;;;7.82;;
39864;SDS011;25538;48.392;9.976;2022-11-15T03:55:15;10.02;;;7.95;;
39864;SDS011;25538;48.392;9.976;2022-11-15T03:57:43;8.95;;;7.97;;
39864;SDS011;25538;48.392;9.976;2022-11-15T04:00:10;9.43;;;8.40;;
39864;SDS011;25538;48.392;9.976;2022-11-15T04:02:36;10.63;;;7.10;;
39864;SDS011;25538;48.392;9.976;2022-11-15T04:05:02;9.50;;;8.53;;
39864;SDS011;25538;48.392;9.976;2022-11-15T04:07:29;9.65;;;8.40;;
39864;SDS011;25538;48.392;9.976;2022-11-15T04:09:55;10.40;;;8.43;;
39864;SDS011;25538;48.392;9.976;2022-11-15T04:12:34;10.07;;;9.05;;
39864;SDS011;25538;48.392;9.976;2022-11-15T04:17:32;9.18;;;8.27;;
39864;SDS011;25538;48.392;9.976;2022-11-15T04:20:13;11.23;;;9.32;;
39864;SDS011;25538;48.392;9.976;2022-11-15T04:23:06;10.63;;;9.52;;
39864;SDS011;25538;48.392;9.976;2022-11-15T04:25:56;10.80;;;9.77;;
39864;SDS011;25538;48.392;9.976;2022-11-15T04:28:25;11.55;;;10.18;;
39864;SDS011;25538;48.392;9.976;2022-11-15T04:30:51;15.07;;;9.98;;
39864;SDS011;25538;48.392;9.976;2022-11-15T04:33:17;12.13;;;9.63;;
39864;SDS011;25538;48.392;9.976;2022-11-15T04:35:43;14.60;;;10.17;;
39864;SDS011;25538;48.392;9.976;2022-11-15T04:38:29;8.95;;;8.05;;
39864;SDS011;25538;48.392;9.976;2022-11-15T04:40:55;10.30;;;9.18;;
39864;SDS011;25538;48.392;9.976;2022-11-15T04:43:21;10.13;;;9.13;;
39864;SDS011;25538;48.392;9.976;2022-11-15T04:45:47;9.83;;;9.00;;
39864;SDS011;25538;48.392;9.976;2022-11-15T04:48:13;9.17;;;8.33;;
39864;SDS011;25538;48.392;9.976;2022-11-15T04:50:38;10.30;;;8.77;;
39864;SDS011;25538;48.392;9.976;2022-11-15T04:53:04;14.33;;;9.13;;
39864;SDS011;25538;48.392;9.976;2022-11-15T04:55:31;9.40;;;8.50;;
39864;SDS011;25538;48.392;9.976;2022-11-15T04:58:00;9.20;;;8.43;;
39864;SDS011;25538;48.392;9.976;2022-11-15T05:00:27;10.52;;;9.43;;
39864;SDS011;25538;48.392;9.976;2022-11-15T05:02:54;11.82;;;9.02;;
39864;SDS011;25538;48.392;9.976;2022-11-15T05:05:39;10.77;;;9.70;;
39864;SDS011;25538;48.392;9.976;2022-11-15T05:08:06;9.98;;;9.07;;
39864;SDS011;25538;48.392;9.976;2022-11-15T05:10:32;12.27;;;11.17;;
39864;SDS011;25538;48.392;9.976;2022-11-15T05:12:58;12.60;;;10.10;;
39864;SDS011;25538;48.392;9.976;2022-11-15T05:15:24;11.07;;;10.07;;
39864;SDS011;25538;48.392;9.976;2022-11-15T05:17:49;10.40;;;9.40;;
39864;SDS011;25538;48.392;9.976;2022-11-15T05:20:15;11.30;;;10.13;;
39864;SDS011;25538;48.392;9.976;2022-11-15T05:22:41;11.90;;;10.80;;
39864;SDS011;25538;48.392;9.976;2022-11-15T05:25:07;12.67;;;11.20;;
39864;SDS011;25538;48.392;9.976;2022-11-15T05:27:33;11.20;;;10.20;;
39864;SDS011;25538;48.392;9.976;2022-11-15T05:30:00;11.93;;;10.43;;
39864;SDS011;25538;48.392;9.976;2022-11-15T05:32:26;11.40;;;10.37;;
39864;SDS011;25538;48.392;9.976;2022-11-15T05:34:53;12.20;;;11.10;;
39864;SDS011;25538;48.392;9.976;2022-11-15T05:37:20;13.48;;;12.18;;
39864;SDS011;25538;48.392;9.976;2022-11-15T05:39:45;18.80;;;12.53;;
39864;SDS011;25538;48.392;9.976;2022-11-15T05:42:12;13.00;;;11.60;;
39864;SDS011;25538;48.392;9.976;2022-11-15T05:47:13;16.17;;;12.77;;
39864;SDS011;25538;48.392;9.976;2022-11-15T05:49:48;14.77;;;12.45;;
39864;SDS011;25538;48.392;9.976;2022-11-15T05:52:17;13.90;;;12.18;;
39864;SDS011;25538;48.392;9.976;2022-11-15T05:54:47;12.05;;;10.35;;
39864;SDS011;25538;48.392;9.976;2022-11-15T05:57:13;12.30;;;10.70;;
39864;SDS011;25538;48.392;9.976;2022-11-15T05:59:40;13.68;;;11.13;;
39864;SDS011;25538;48.392;9.976;2022-11-15T06:02:09;11.75;;;9.60;;
39864;SDS011;25538;48.392;9.976;2022-11-15T06:04:35;15.25;;;10.25;;
39864;SDS011;25538;48.392;9.976;2022-11-15T06:07:01;10.52;;;9.30;;
39864;SDS011;25538;48.392;9.976;2022-11-15T06:09:27;13.60;;;10.17;;
39864;SDS011;25538;48.392;9.976;2022-11-15T06:11:53;14.85;;;11.38;;
39864;SDS011;25538;48.392;9.976;2022-11-15T06:14:19;11.27;;;10.10;;
39864;SDS011;25538;48.392;9.976;2022-11-15T06:16:45;12.02;;;10.82;;
39864;SDS011;25538;48.392;9.976;2022-11-15T06:19:11;13.30;;;11.03;;
39864;SDS011;25538;48.392;9.976;2022-11-15T06:21:37;18.27;;;13.43;;
39864;SDS011;25538;48.392;9.976;2022-11-15T06:24:03;13.80;;;11.03;;
39864;SDS011;25538;48.392;9.976;2022-11-15T06:26:30;12.13;;;10.48;;
39864;SDS011;25538;48.392;9.976;2022-11-15T06:28:56;12.90;;;11.70;;
39864;SDS011;25538;48.392;9.976;2022-11-15T06:31:21;12.70;;;11.07;;
39864;SDS011;25538;48.392;9.976;2022-11-15T06:33:47;13.73;;;11.63;;
39864;SDS011;25538;48.392;9.976;2022-11-15T06:36:14;14.90;;;12.52;;
39864;SDS011;25538;48.392;9.976;2022-11-15T06:38:42;13.30;;;11.80;;
39864;SDS011;25538;48.392;9.976;2022-11-15T06:41:09;15.23;;;13.05;;
39864;SDS011;25538;48.392;9.976;2022-11-15T06:43:36;14.35;;;12.68;;
39864;SDS011;25538;48.392;9.976;2022-11-15T06:46:03;13.77;;;12.35;;
39864;SDS011;25538;48.392;9.976;2022-11-15T06:48:30;17.15;;;13.13;;
39864;SDS011;25538;48.392;9.976;2022-11-15T06:50:59;15.25;;;12.88;;
39864;SDS011;25538;48.392;9.976;2022-11-15T06:53:26;15.45;;;12.82;;
39864;SDS011;25538;48.392;9.976;2022-11-15T06:55:52;15.55;;;13.25;;
39864;SDS011;25538;48.392;9.976;2022-11-15T06:58:20;16.05;;;14.35;;
39864;SDS011;25538;48.392;9.976;2022-11-15T07:00:46;14.85;;;13.45;;
39864;SDS011;25538;48.392;9.976;2022-11-15T07:03:12;16.20;;;14.60;;
39864;SDS011;25538;48.392;9.976;2022-11-15T07:05:38;16.97;;;15.03;;
39864;SDS011;25538;48.392;9.976;2022-11-15T07:08:04;17.53;;;16.03;;
39864;SDS011;25538;48.392;9.976;2022-11-15T07:10:30;17.90;;;15.80;;
39864;SDS011;25538;48.392;9.976;2022-11-15T07:12:56;14.23;;;12.83;;
39864;SDS011;25538;48.392;9.976;2022-11-15T07:15:23;16.10;;;12.43;;
39864;SDS011;25538;48.392;9.976;2022-11-15T07:17:50;13.68;;;12.15;;
39864;SDS011;25538;48.392;9.976;2022-11-15T07:20:16;19.45;;;11.52;;
39864;SDS011;25538;48.392;9.976;2022-11-15T07:22:43;12.65;;;11.60;;
39864;SDS011;25538;48.392;9.976;2022-11-15T07:25:10;17.35;;;15.48;;
39864;SDS011;25538;48.392;9.976;2022-11-15T07:27:37;13.40;;;11.05;;
39864;SDS011;25538;48.392;9.976;2022-11-15T07:30:03;16.60;;;11.80;;
39864;SDS011;25538;48.392;9.976;2022-11-15T07:32:30;14.25;;;12.20;;
39864;SDS011;25538;48.392;9.976;2022-11-15T07:34:56;13.85;;;11.80;;
39864;SDS011;25538;48.392;9.976;2022-11-15T07:37:22;13.83;;;10.87;;
39864;SDS011;25538;48.392;9.976;2022-11-15T07:39:48;11.70;;;10.60;;
39864;SDS011;25538;48.392;9.976;2022-11-15T07:42:14;13.60;;;11.53;;
39864;SDS011;25538;48.392;9.976;2022-11-15T07:44:58;12.27;;;11.18;;
39864;SDS011;25538;48.392;9.976;2022-11-15T07:47:24;15.50;;;11.87;;
39864;SDS011;25538;48.392;9.976;2022-11-15T07:49:50;16.77;;;12.45;;
39864;SDS011;25538;48.392;9.976;2022-11-15T07:52:17;15.25;;;11.40;;
39864;SDS011;25538;48.392;9.976;2022-11-15T07:54:43;19.77;;;13.10;;
39864;SDS011;25538;48.392;9.976;2022-11-15T07:57:09;11.97;;;10.70;;
39864;SDS011;25538;48.392;9.976;2022-11-15T07:59:35;13.43;;;12.10;;
39864;SDS011;25538;48.392;9.976;2022-11-15T08:02:01;13.73;;;12.30;;
39864;SDS011;25538;48.392;9.976;2022-11-15T08:04:27;16.85;;;15.30;;
39864;SDS011;25538;48.392;9.976;2022-11-15T08:06:53;26.37;;;16.10;;
39864;SDS011;25538;48.392;9.976;2022-11-15T08:09:19;18.37;;;16.53;;
39864;SDS011;25538;48.392;9.976;2022-11-15T08:11:45;16.85;;;14.60;;
39864;SDS011;25538;48.392;9.976;2022-11-15T08:14:11;17.70;;;15.83;;
39864;SDS011;25538;48.392;9.976;2022-11-15T08:16:37;18.10;;;15.33;;
39864;SDS011;25538;48.392;9.976;2022-11-15T08:19:03;16.80;;;15.20;;
39864;SDS011;25538;48.392;9.976;2022-11-15T08:21:28;16.23;;;12.53;;
39864;SDS011;25538;48.392;9.976;2022-11-15T08:23:54;13.63;;;12.43;;
39864;SDS011;25538;48.392;9.976;2022-11-15T08:26:20;13.87;;;12.73;;
39864;SDS011;25538;48.392;9.976;2022-11-15T08:28:47;15.07;;;13.40;;
39864;SDS011;25538;48.392;9.976;2022-11-15T08:31:13;13.23;;;12.03;;
39864;SDS011;25538;48.392;9.976;2022-11-15T08:33:42;14.20;;;12.80;;
39864;SDS011;25538;48.392;9.976;2022-11-15T08:36:10;14.93;;;13.63;;
39864;SDS011;25538;48.392;9.976;2022-11-15T08:38:41;14.32;;;13.05;;
39864;SDS011;25538;48.392;9.976;2022-11-15T08:41:09;26.27;;;13.68;;
39864;SDS011;25538;48.392;9.976;2022-11-15T08:43:38;15.57;;;13.90;;
39864;SDS011;25538;48.392;9.976;2022-11-15T08:46:04;17.13;;;14.30;;
39864;SDS011;25538;48.392;9.976;2022-11-15T08:48:30;19.03;;;14.70;;
39864;SDS011;25538;48.392;9.976;2022-11-15T08:50:56;20.92;;;14.10;;
39864;SDS011;25538;48.392;9.976;2022-11-15T08:53:22;18.30;;;14.48;;
39864;SDS011;25538;48.392;9.976;2022-11-15T08:55:48;22.93;;;15.73;;
39864;SDS011;25538;48.392;9.976;2022-11-15T08:58:14;17.20;;;15.20;;
39864;SDS011;25538;48.392;9.976;2022-11-15T09:00:40;16.90;;;15.10;;
39864;SDS011;25538;48.392;9.976;2022-11-15T09:03:06;17.67;;;15.73;;
39864;SDS011;25538;48.392;9.976;2022-11-15T09:05:35;24.60;;;16.83;;
39864;SDS011;25538;48.392;9.976;2022-11-15T09:08:02;18.05;;;16.15;;
39864;SDS011;25538;48.392;9.976;2022-11-15T09:10:28;17.47;;;15.77;;
39864;SDS011;25538;48.392;9.976;2022-11-15T09:12:54;20.03;;;16.83;;
39864;SDS011;25538;48.392;9.976;2022-11-15T09:15:22;36.42;;;32.95;;
39864;SDS011;25538;48.392;9.976;2022-11-15T09:17:48;20.27;;;18.27;;
39864;SDS011;25538;48.392;9.976;2022-11-15T09:20:14;23.73;;;19.40;;
39864;SDS011;25538;48.392;9.976;2022-11-15T09:22:40;24.45;;;21.92;;
39864;SDS011;25538;48.392;9.976;2022-11-15T09:25:06;20.47;;;18.67;;
39864;SDS011;25538;48.392;9.976;2022-11-15T09:27:33;20.00;;;18.17;;
39864;SDS011;25538;48.392;9.976;2022-11-15T09:29:59;20.80;;;18.90;;
39864;SDS011;25538;48.392;9.976;2022-11-15T09:32:27;18.67;;;16.97;;
39864;SDS011;25538;48.392;9.976;2022-11-15T09:34:54;20.47;;;18.37;;
39864;SDS011;25538;48.392;9.976;2022-11-15T09:37:20;20.53;;;17.57;;
39864;SDS011;25538;48.392;9.976;2022-11-15T09:39:45;24.13;;;22.03;;
39864;SDS011;25538;48.392;9.976;2022-11-15T09:47:58;37.10;;;33.50;;
39864;SDS011;25538;48.392;9.976;2022-11-15T09:53:05;42.30;;;38.22;;
39864;SDS011;25538;48.392;9.976;2022-11-15T09:56:40;39.35;;;35.38;;
39864;SDS011;25538;48.392;9.976;2022-11-15T09:58:57;44.38;;;39.72;;
39864;SDS011;25538;48.392;9.976;2022-11-15T10:04:16;51.63;;;46.15;;
39864;SDS011;25538;48.392;9.976;2022-11-15T10:06:44;48.90;;;44.25;;
39864;SDS011;25538;48.392;9.976;2022-11-15T10:09:18;53.33;;;47.92;;
39864;SDS011;25538;48.392;9.976;2022-11-15T10:11:48;47.33;;;42.70;;
39864;SDS011;25538;48.392;9.976;2022-11-15T10:14:15;43.90;;;39.87;;
39864;SDS011;25538;48.392;9.976;2022-11-15T10:25:09;32.07;;;29.20;;
39864;SDS011;25538;48.392;9.976;2022-11-15T10:27:37;32.87;;;29.47;;
39864;SDS011;25538;48.392;9.976;2022-11-15T10:30:10;31.73;;;29.13;;
39864;SDS011;25538;48.392;9.976;2022-11-15T10:32:38;28.83;;;26.33;;
39864;SDS011;25538;48.392;9.976;2022-11-15T10:38:05;29.90;;;27.40;;
39864;SDS011;25538;48.392;9.976;2022-11-15T10:40:33;29.30;;;26.77;;
39864;SDS011;25538;48.392;9.976;2022-11-15T10:45:35;27.80;;;25.30;;
39864;SDS011;25538;48.392;9.976;2022-11-15T10:48:21;26.47;;;23.90;;
39864;SDS011;25538;48.392;9.976;2022-11-15T10:50:48;29.87;;;23.90;;
39864;SDS011;25538;48.392;9.976;2022-11-15T10:55:53;43.70;;;26.70;;
39864;SDS011;25538;48.392;9.976;2022-11-15T10:58:31;46.27;;;28.40;;
39864;SDS011;25538;48.392;9.976;2022-11-15T11:03:39;49.70;;;30.07;;
39864;SDS011;25538;48.392;9.976;2022-11-15T11:06:10;51.00;;;28.87;;
39864;SDS011;25538;48.392;9.976;2022-11-15T11:09:00;31.80;;;20.73;;
39864;SDS011;25538;48.392;9.976;2022-11-15T11:14:25;21.10;;;16.37;;
39864;SDS011;25538;48.392;9.976;2022-11-15T11:17:08;20.60;;;15.50;;
39864;SDS011;25538;48.392;9.976;2022-11-15T11:25:29;13.00;;;11.80;;
39864;SDS011;25538;48.392;9.976;2022-11-15T17:08:25;24.30;;;20.70;;
39864;SDS011;25538;48.392;9.976;2022-11-15T17:10:52;22.88;;;20.35;;
39864;SDS011;25538;48.392;9.976;2022-11-15T17:13:18;21.57;;;19.30;;
39864;SDS011;25538;48.392;9.976;2022-11-15T17:15:44;21.67;;;19.63;;
39864;SDS011;25538;48.392;9.976;2022-11-15T17:18:10;21.07;;;19.07;;
39864;SDS011;25538;48.392;9.976;2022-11-15T17:20:38;20.10;;;18.30;;
39864;SDS011;25538;48.392;9.976;2022-11-15T17:23:05;18.50;;;16.90;;
39864;SDS011;25538;48.392;9.976;2022-11-15T17:25:36;20.45;;;18.35;;
39864;SDS011;25538;48.392;9.976;2022-11-15T17:28:02;22.10;;;19.90;;
39864;SDS011;25538;48.392;9.976;2022-11-15T17:30:28;22.67;;;20.30;;
39864;SDS011;25538;48.392;9.976;2022-11-15T17:32:54;23.05;;;20.63;;
39864;SDS011;25538;48.392;9.976;2022-11-15T17:35:21;23.38;;;20.00;;
39864;SDS011;25538;48.392;9.976;2022-11-15T17:37:46;21.67;;;19.60;;
39864;SDS011;25538;48.392;9.976;2022-11-15T17:40:12;21.63;;;19.63;;
39864;SDS011;25538;48.392;9.976;2022-11-15T17:42:39;24.27;;;21.25;;
39864;SDS011;25538;48.392;9.976;2022-11-15T17:45:06;24.88;;;22.13;;
39864;SDS011;25538;48.392;9.976;2022-11-15T17:47:33;27.00;;;22.83;;
39864;SDS011;25538;48.392;9.976;2022-11-15T17:49:59;26.93;;;24.13;;
39864;SDS011;25538;48.392;9.976;2022-11-15T17:52:25;27.47;;;24.60;;
39864;SDS011;25538;48.392;9.976;2022-11-15T17:54:51;26.20;;;23.52;;
39864;SDS011;25538;48.392;9.976;2022-11-15T17:57:17;28.70;;;25.63;;
39864;SDS011;25538;48.392;9.976;2022-11-15T17:59:43;26.57;;;21.97;;
39864;SDS011;25538;48.392;9.976;2022-11-15T18:02:09;25.13;;;22.80;;
39864;SDS011;25538;48.392;9.976;2022-11-15T18:04:35;24.40;;;20.47;;
39864;SDS011;25538;48.392;9.976;2022-11-15T18:07:00;24.23;;;21.67;;
39864;SDS011;25538;48.392;9.976;2022-11-15T18:09:26;24.33;;;21.90;;
39864;SDS011;25538;48.392;9.976;2022-11-15T18:11:52;22.87;;;20.67;;
39864;SDS011;25538;48.392;9.976;2022-11-15T18:14:18;24.92;;;22.38;;
39864;SDS011;25538;48.392;9.976;2022-11-15T18:16:45;27.13;;;24.52;;
39864;SDS011;25538;48.392;9.976;2022-11-15T18:19:11;29.43;;;26.27;;
39864;SDS011;25538;48.392;9.976;2022-11-15T18:21:40;28.95;;;26.17;;
39864;SDS011;25538;48.392;9.976;2022-11-15T18:24:29;31.08;;;28.33;;
39864;SDS011;25538;48.392;9.976;2022-11-15T18:26:57;29.08;;;26.48;;
39864;SDS011;25538;48.392;9.976;2022-11-15T18:29:24;30.17;;;27.35;;
39864;SDS011;25538;48.392;9.976;2022-11-15T18:31:50;32.85;;;29.35;;
39864;SDS011;25538;48.392;9.976;2022-11-15T18:34:23;30.17;;;27.58;;
39864;SDS011;25538;48.392;9.976;2022-11-15T18:36:51;30.38;;;27.38;;
39864;SDS011;25538;48.392;9.976;2022-11-15T18:39:17;31.25;;;28.20;;
39864;SDS011;25538;48.392;9.976;2022-11-15T18:41:44;31.00;;;27.75;;
39864;SDS011;25538;48.392;9.976;2022-11-15T18:44:13;33.97;;;30.35;;
39864;SDS011;25538;48.392;9.976;2022-11-15T18:46:40;32.70;;;29.70;;
39864;SDS011;25538;48.392;9.976;2022-11-15T18:49:08;33.40;;;30.27;;
39864;SDS011;25538;48.392;9.976;2022-11-15T18:51:35;32.83;;;29.92;;
39864;SDS011;25538;48.392;9.976;2022-11-15T18:54:12;32.65;;;29.45;;
39864;SDS011;25538;48.392;9.976;2022-11-15T18:56:40;32.95;;;29.70;;
39864;SDS011;25538;48.392;9.976;2022-11-15T18:59:06;33.10;;;29.92;;
39864;SDS011;25538;48.392;9.976;2022-11-15T19:01:33;34.70;;;31.45;;
39864;SDS011;25538;48.392;9.976;2022-11-15T19:04:11;33.65;;;30.27;;
39864;SDS011;25538;48.392;9.976;2022-11-15T19:06:42;33.88;;;30.52;;
39864;SDS011;25538;48.392;9.976;2022-11-15T19:09:11;30.13;;;27.30;;
39864;SDS011;25538;48.392;9.976;2022-11-15T19:11:41;27.02;;;23.85;;
39864;SDS011;25538;48.392;9.976;2022-11-15T19:14:08;26.45;;;24.00;;
39864;SDS011;25538;48.392;9.976;2022-11-15T19:16:36;24.98;;;22.52;;
39864;SDS011;25538;48.392;9.976;2022-11-15T19:19:04;25.92;;;23.48;;
39864;SDS011;25538;48.392;9.976;2022-11-15T19:21:32;21.45;;;19.25;;
39864;SDS011;25538;48.392;9.976;2022-11-15T19:23:59;24.60;;;22.20;;
39864;SDS011;25538;48.392;9.976;2022-11-15T19:26:26;21.30;;;18.88;;
39864;SDS011;25538;48.392;9.976;2022-11-15T19:29:01;20.00;;;17.45;;
39864;SDS011;25538;48.392;9.976;2022-11-15T19:31:28;20.73;;;18.67;;
39864;SDS011;25538;48.392;9.976;2022-11-15T19:33:58;20.52;;;18.48;;
39864;SDS011;25538;48.392;9.976;2022-11-15T19:36:35;19.05;;;17.38;;
39864;SDS011;25538;48.392;9.976;2022-11-15T19:39:04;19.27;;;17.35;;
39864;SDS011;25538;48.392;9.976;2022-11-15T19:41:34;19.48;;;17.58;;
39864;SDS011;25538;48.392;9.976;2022-11-15T19:44:02;19.27;;;17.55;;
39864;SDS011;25538;48.392;9.976;2022-11-15T19:46:29;19.50;;;17.63;;
39864;SDS011;25538;48.392;9.976;2022-11-15T19:48:55;19.20;;;17.35;;
39864;SDS011;25538;48.392;9.976;2022-11-15T19:51:22;18.70;;;16.90;;
39864;SDS011;25538;48.392;9.976;2022-11-15T19:53:53;17.48;;;15.63;;
39864;SDS011;25538;48.392;9.976;2022-11-15T19:56:21;17.75;;;15.95;;
39864;SDS011;25538;48.392;9.976;2022-11-15T19:58:51;16.98;;;15.48;;
39864;SDS011;25538;48.392;9.976;2022-11-15T20:01:19;17.10;;;15.50;;
39864;SDS011;25538;48.392;9.976;2022-11-15T20:03:49;18.30;;;16.40;;
39864;SDS011;25538;48.392;9.976;2022-11-15T20:06:20;17.60;;;15.93;;
39864;SDS011;25538;48.392;9.976;2022-11-15T20:08:47;17.55;;;15.85;;
39864;SDS011;25538;48.392;9.976;2022-11-15T20:11:14;18.00;;;16.17;;
39864;SDS011;25538;48.392;9.976;2022-11-15T20:13:41;17.05;;;15.55;;
39864;SDS011;25538;48.392;9.976;2022-11-15T20:16:08;19.58;;;17.52;;
39864;SDS011;25538;48.392;9.976;2022-11-15T20:18:40;18.48;;;16.75;;
39864;SDS011;25538;48.392;9.976;2022-11-15T20:23:34;18.95;;;16.70;;
39864;SDS011;25538;48.392;9.976;2022-11-15T20:26:00;17.40;;;15.80;;
39864;SDS011;25538;48.392;9.976;2022-11-15T20:28:27;17.53;;;16.03;;
39864;SDS011;25538;48.392;9.976;2022-11-15T20:30:54;18.88;;;16.90;;
39864;SDS011;25538;48.392;9.976;2022-11-15T20:33:21;18.35;;;16.67;;
39864;SDS011;25538;48.392;9.976;2022-11-15T20:35:48;19.65;;;16.73;;
39864;SDS011;25538;48.392;9.976;2022-11-15T20:38:14;18.65;;;17.05;;
39864;SDS011;25538;48.392;9.976;2022-11-15T20:40:43;18.75;;;17.15;;
39864;SDS011;25538;48.392;9.976;2022-11-15T20:43:10;18.70;;;16.95;;
39864;SDS011;25538;48.392;9.976;2022-11-15T20:45:38;18.35;;;16.60;;
39864;SDS011;25538;48.392;9.976;2022-11-15T20:48:04;17.80;;;16.13;;
39864;SDS011;25538;48.392;9.976;2022-11-15T20:50:30;18.20;;;16.55;;
39864;SDS011;25538;48.392;9.976;2022-11-15T20:52:56;17.90;;;16.40;;
39864;SDS011;25538;48.392;9.976;2022-11-15T20:55:23;18.83;;;17.02;;
39864;SDS011;25538;48.392;9.976;2022-11-15T20:57:49;18.35;;;16.52;;
39864;SDS011;25538;48.392;9.976;2022-11-15T21:00:15;18.87;;;17.10;;
39864;SDS011;25538;48.392;9.976;2022-11-15T21:02:41;18.95;;;17.30;;
39864;SDS011;25538;48.392;9.976;2022-11-15T21:05:08;20.33;;;15.77;;
39864;SDS011;25538;48.392;9.976;2022-11-15T21:07:36;19.35;;;17.55;;
39864;SDS011;25538;48.392;9.976;2022-11-15T21:10:03;16.33;;;14.88;;
39864;SDS011;25538;48.392;9.976;2022-11-15T21:12:55;17.80;;;16.20;;
39864;SDS011;25538;48.392;9.976;2022-11-15T21:15:27;17.40;;;15.80;;
39864;SDS011;25538;48.392;9.976;2022-11-15T21:17:55;16.65;;;15.05;;
39864;SDS011;25538;48.392;9.976;2022-11-15T21:20:26;17.90;;;16.05;;
39864;SDS011;25538;48.392;9.976;2022-11-15T21:22:53;16.05;;;14.63;;
39864;SDS011;25538;48.392;9.976;2022-11-15T21:25:20;16.67;;;14.93;;
39864;SDS011;25538;48.392;9.976;2022-11-15T21:27:46;17.33;;;15.60;;
39864;SDS011;25538;48.392;9.976;2022-11-15T21:30:12;16.60;;;15.00;;
39864;SDS011;25538;48.392;9.976;2022-11-15T21:32:38;16.50;;;15.07;;